This is the latest recevied weather packets stored in our database for station/object SP8PUB-10. If no packets are shown the sender has not sent any weather packets the latest 10 day(s).
| Time | Temp. | Humidity | Pressure | Rain* | Wind** | Luminosity | Snow |
|---|---|---|---|---|---|---|---|
| 1777714526 | 18.89° C | 48% | 1026.3 hPa | - | - | - | - |
| 1777713626 | 18.89° C | 49% | 1026.5 hPa | - | - | - | - |
| 1777712726 | 21.11° C | 46% | 1026.8 hPa | - | - | - | - |
| 1777711825 | 21.67° C | 44% | 1026.9 hPa | - | - | - | - |
| 1777710924 | 26.67° C | 39% | 1027 hPa | - | - | - | - |
| 1777710024 | 25.56° C | 40% | 1027.2 hPa | - | - | - | - |
| 1777709124 | 27.78° C | 39% | 1027.3 hPa | - | - | - | - |
| 1777708224 | 27.22° C | 40% | 1027.2 hPa | - | - | - | - |
| 1777707324 | 25.56° C | 41% | 1027.3 hPa | - | - | - | - |
| 1777706424 | 26.67° C | 41% | 1027.3 hPa | - | - | - | - |
| 1777705524 | 25.56° C | 43% | 1027.2 hPa | - | - | - | - |
| 1777704624 | 25° C | 44% | 1027.2 hPa | - | - | - | - |
| 1777703723 | 23.33° C | 46% | 1027.3 hPa | - | - | - | - |
| 1777702823 | 23.33° C | 46% | 1027.2 hPa | - | - | - | - |
| 1777701923 | 21.11° C | 49% | 1027 hPa | - | - | - | - |
| 1777701023 | 21.11° C | 50% | 1027.1 hPa | - | - | - | - |
| 1777700123 | 20.56° C | 50% | 1026.9 hPa | - | - | - | - |
| 1777699223 | 19.44° C | 53% | 1026.8 hPa | - | - | - | - |
| 1777698323 | 18.33° C | 55% | 1026.7 hPa | - | - | - | - |
| 1777697423 | 16.67° C | 57% | 1026.6 hPa | - | - | - | - |
| 1777696523 | 15.56° C | 59% | 1026.5 hPa | - | - | - | - |
| 1777695623 | 14.44° C | 61% | 1026.5 hPa | - | - | - | - |
| 1777694723 | 11.67° C | 69% | 1026.4 hPa | - | - | - | - |
| 1777693822 | 9.44° C | 81% | 1026.2 hPa | - | - | - | - |
| 1777692922 | 5° C | 100% | 1026.1 hPa | - | - | - | - |
* Rain since midnight (hover to see other rain measurements)
** Current wind speed in m/s (hover to see current wind gust speed)